| time (UTC) | temp F | wind direction | speed knots | gust knots | rain 1hr in | rain 24hr in | rain mn in | humidity % | barometer mb |
| 20260509023440 | 62 | 180 | 3.5 | 8.7 | 0.00 | 0.01 | 0.01 | 83 | 1028.5 |
| 20260509020441 | 63 | 180 | 3.5 | 9.6 | 0.00 | 0.01 | 0.01 | 80 | 1029.3 |
| 20260509010437 | 62 | 180 | 4.3 | 7.8 | 0.00 | 0.01 | 0.01 | 82 | 1029.4 |
| 20260508233436 | 58 | 224 | 3.5 | 7.0 | 0.00 | 0.02 | 0.01 | 91 | 1029.5 |
| 20260508230437 | 56 | 180 | 2.6 | 5.2 | 0.00 | 0.02 | 0.01 | 95 | 1029.0 |
| 20260508213436 | 55 | 180 | 2.6 | 4.3 | 0.00 | 0.02 | 0.01 | 94 | 1028.8 |
| 20260508203436 | 54 | 180 | 2.6 | 3.5 | 0.01 | 0.02 | 0.01 | 93 | 1028.5 |
| 20260508193437 | 55 | 180 | 0.9 | 3.5 | 0.00 | 0.01 | 0.00 | 93 | 1028.1 |
| 20260508183436 | 55 | 180 | 2.6 | 4.3 | 0.00 | 0.01 | 0.00 | 93 | 1028.4 |
| 20260508183430 | 55 | 180 | 0.9 | 7.8 | 0.00 | 0.01 | 0.00 | 93 | 1027.9 |
| 20260508163427 | 54 | 180 | 2.6 | 5.2 | 0.00 | 0.01 | 0.00 | 93 | 1028.0 |
| 20260508153426 | 54 | 180 | 2.6 | 5.2 | 0.00 | 0.01 | 0.00 | 92 | 1028.4 |
| 20260508143427 | 54 | 180 | 2.6 | 7.0 | 0.00 | 0.01 | 0.00 | 91 | 1028.6 |
| 20260508133424 | 55 | 209 | 2.6 | 7.8 | 0.00 | 0.01 | 0.01 | 90 | 1028.9 |
| 20260508123426 | 56 | 212 | 3.5 | 7.8 | 0.00 | 0.01 | 0.01 | 89 | 1029.2 |
| 20260508113422 | 57 | 220 | 3.5 | 8.7 | 0.00 | 0.01 | 0.01 | 86 | 1029.1 |
| 20260508103422 | 57 | 222 | 4.3 | 9.6 | 0.00 | 0.01 | 0.01 | 85 | 1029.0 |
| 20260508100421 | 58 | 180 | 3.5 | 12.2 | 0.00 | 0.01 | 0.01 | 81 | 1029.0 |
| 20260508090421 | 59 | 240 | 3.5 | 10.4 | 0.00 | 0.01 | 0.01 | 81 | 1028.5 |
| 20260508073419 | 60 | 180 | 5.2 | 13.9 | 0.00 | 0.01 | 0.01 | 82 | 1028.1 |
| 20260508063419 | 62 | 180 | 6.1 | 13.0 | 0.00 | 0.01 | 0.01 | 79 | 1028.1 |
| 20260508053418 | 62 | 180 | 6.1 | 16.5 | 0.00 | 0.01 | 0.01 | 82 | 1028.2 |
| 20260508043418 | 64 | 180 | 7.0 | 15.6 | 0.00 | 0.01 | 0.01 | 79 | 1028.4 |
| 20260508033418 | 64 | 211 | 5.2 | 14.8 | 0.00 | 0.01 | 0.01 | 78 | 1028.8 |